createdAt,value
2022-12-31T00:02:20.759Z,8.44
2022-12-31T00:04:47.977Z,8.39
2022-12-31T00:07:15.063Z,8.41
2022-12-31T00:09:42.199Z,8.49
2022-12-31T00:12:09.350Z,8.42
2022-12-31T00:14:36.641Z,8.42
2022-12-31T00:17:03.790Z,8.44
2022-12-31T00:19:30.993Z,8.38
2022-12-31T00:21:58.056Z,8.44
2022-12-31T00:24:25.212Z,8.45
2022-12-31T00:26:52.294Z,8.40
2022-12-31T00:29:19.357Z,8.44
2022-12-31T00:31:46.454Z,8.38
2022-12-31T00:34:13.624Z,8.34
2022-12-31T00:36:42.518Z,8.33
2022-12-31T00:39:10.504Z,8.30
2022-12-31T00:41:37.892Z,8.34
2022-12-31T00:44:05.528Z,8.36
2022-12-31T00:46:32.770Z,8.38
2022-12-31T00:48:59.942Z,8.36
2022-12-31T00:51:27.783Z,8.37
2022-12-31T00:53:56.535Z,8.36
2022-12-31T00:56:26.870Z,8.35
2022-12-31T00:58:54.236Z,8.32
2022-12-31T01:01:36.168Z,8.35
2022-12-31T01:04:16.878Z,8.37
2022-12-31T01:06:44.438Z,8.35
2022-12-31T01:09:13.734Z,8.34
2022-12-31T01:11:41.022Z,8.34
2022-12-31T01:14:11.799Z,8.28
2022-12-31T01:16:53.388Z,8.26
2022-12-31T01:19:29.099Z,8.22
2022-12-31T01:21:57.067Z,8.14
2022-12-31T01:24:24.622Z,8.11
2022-12-31T01:26:51.907Z,8.04
2022-12-31T01:29:19.195Z,8.04
2022-12-31T01:31:46.337Z,8.07
2022-12-31T01:34:13.477Z,8.03
2022-12-31T01:36:40.569Z,7.95
2022-12-31T01:39:08.732Z,7.91
2022-12-31T01:41:38.711Z,7.83
2022-12-31T01:44:11.690Z,7.79
2022-12-31T01:46:42.487Z,7.69
2022-12-31T01:49:34.316Z,7.63
2022-12-31T01:52:08.849Z,7.54
2022-12-31T01:54:44.593Z,7.45
2022-12-31T01:57:12.732Z,7.33
2022-12-31T01:59:41.020Z,7.22
2022-12-31T02:02:08.235Z,7.23
2022-12-31T02:04:35.545Z,7.14
2022-12-31T02:07:05.290Z,7.18
2022-12-31T02:09:34.486Z,7.03
2022-12-31T02:12:01.623Z,7.07
2022-12-31T02:14:50.679Z,7.05
2022-12-31T02:17:34.037Z,6.97
2022-12-31T02:20:19.299Z,6.94
2022-12-31T02:23:07.852Z,6.92
2022-12-31T02:25:52.500Z,6.87
2022-12-31T02:28:35.461Z,6.83
2022-12-31T02:31:18.404Z,6.84
2022-12-31T02:33:54.528Z,6.80
2022-12-31T02:36:25.596Z,6.80
2022-12-31T02:38:54.705Z,6.74
2022-12-31T02:41:40.484Z,6.71
2022-12-31T02:44:25.982Z,6.71
2022-12-31T02:47:08.134Z,6.65
2022-12-31T02:50:15.719Z,6.66
2022-12-31T02:53:14.097Z,6.63
2022-12-31T02:56:08.358Z,6.64
2022-12-31T02:59:31.550Z,6.66
2022-12-31T03:02:15.683Z,6.66
2022-12-31T03:04:47.427Z,6.63
2022-12-31T03:07:20.004Z,6.72
2022-12-31T03:09:47.203Z,6.68
2022-12-31T03:12:34.075Z,6.68
2022-12-31T03:15:01.691Z,6.77
2022-12-31T03:17:28.856Z,6.82
2022-12-31T03:20:14.607Z,6.88
2022-12-31T03:22:43.735Z,6.89
2022-12-31T03:25:31.039Z,6.98
2022-12-31T03:27:58.929Z,7.03
2022-12-31T03:30:26.709Z,7.11
2022-12-31T03:32:56.151Z,7.23
2022-12-31T03:35:25.298Z,7.29
2022-12-31T03:37:53.246Z,7.32
2022-12-31T03:40:22.195Z,7.43
2022-12-31T03:42:49.365Z,7.35
2022-12-31T03:45:16.651Z,7.36
2022-12-31T03:47:44.004Z,7.42
2022-12-31T03:50:12.638Z,7.41
2022-12-31T03:52:39.886Z,7.42
2022-12-31T03:55:08.063Z,7.48
2022-12-31T03:57:35.672Z,7.50
2022-12-31T04:00:06.214Z,7.51
2022-12-31T04:02:34.483Z,7.56
2022-12-31T04:05:01.877Z,7.56
2022-12-31T04:07:30.179Z,7.62
2022-12-31T04:09:57.558Z,7.60
2022-12-31T04:12:24.940Z,7.63
2022-12-31T04:14:52.024Z,7.64
2022-12-31T04:17:19.121Z,7.66
2022-12-31T04:19:46.294Z,7.66
2022-12-31T04:22:13.438Z,7.66
2022-12-31T04:24:42.721Z,7.68
2022-12-31T04:27:10.969Z,7.71
2022-12-31T04:29:38.235Z,7.78
2022-12-31T04:32:06.599Z,7.84
2022-12-31T04:34:34.268Z,7.85
2022-12-31T04:37:03.235Z,7.77
2022-12-31T04:39:30.594Z,7.81
2022-12-31T04:41:57.653Z,7.77
2022-12-31T04:44:24.782Z,7.70
2022-12-31T04:46:51.930Z,7.75
2022-12-31T04:49:19.117Z,7.80
2022-12-31T04:51:46.242Z,7.81
2022-12-31T04:54:13.328Z,7.79
2022-12-31T04:56:40.438Z,7.77
2022-12-31T04:59:08.780Z,7.74
2022-12-31T05:01:36.740Z,7.80
2022-12-31T05:04:04.032Z,7.77
2022-12-31T05:06:31.335Z,7.75
2022-12-31T05:08:58.436Z,7.71
2022-12-31T05:11:25.523Z,7.71
2022-12-31T05:13:52.791Z,7.71
2022-12-31T05:16:19.972Z,7.69
2022-12-31T05:18:47.168Z,7.67
2022-12-31T05:21:20.030Z,7.70
2022-12-31T05:23:47.449Z,7.66
2022-12-31T05:26:15.091Z,7.64
2022-12-31T05:28:42.353Z,7.59
2022-12-31T05:31:10.131Z,7.57
2022-12-31T05:33:37.274Z,7.57
2022-12-31T05:36:04.835Z,7.49
2022-12-31T05:38:33.176Z,7.42
2022-12-31T05:41:02.945Z,7.44
2022-12-31T05:43:30.752Z,7.40
2022-12-31T05:46:04.035Z,7.33
2022-12-31T05:48:31.839Z,7.26
2022-12-31T05:50:59.050Z,7.23
2022-12-31T05:53:26.162Z,7.27
2022-12-31T05:55:53.293Z,7.15
2022-12-31T05:58:20.405Z,7.06
2022-12-31T06:00:47.506Z,6.99
2022-12-31T06:03:14.692Z,6.92
2022-12-31T06:05:42.820Z,6.83
2022-12-31T06:08:11.248Z,6.89
2022-12-31T06:10:40.115Z,6.93
2022-12-31T06:13:08.024Z,6.89
2022-12-31T06:15:39.382Z,6.87
2022-12-31T06:18:07.057Z,6.83
2022-12-31T06:20:36.926Z,6.77
2022-12-31T06:23:04.630Z,6.64
2022-12-31T06:25:32.130Z,6.62
2022-12-31T06:27:59.231Z,6.61
2022-12-31T06:30:26.306Z,6.51
2022-12-31T06:32:55.007Z,6.45
2022-12-31T06:35:22.327Z,6.45
2022-12-31T06:37:52.112Z,6.45
2022-12-31T06:40:19.224Z,6.41
2022-12-31T06:42:46.307Z,6.38
2022-12-31T06:45:13.395Z,6.39
2022-12-31T06:47:40.596Z,6.41
2022-12-31T06:50:08.331Z,6.33
2022-12-31T06:52:35.450Z,6.40
2022-12-31T06:55:03.050Z,6.45
2022-12-31T06:57:30.770Z,6.33
2022-12-31T06:59:59.542Z,6.25
2022-12-31T07:02:48.206Z,6.24
2022-12-31T07:05:24.217Z,6.22
2022-12-31T07:08:33.344Z,6.08
2022-12-31T07:11:10.140Z,6.05
2022-12-31T07:13:55.639Z,5.99
2022-12-31T07:16:36.031Z,5.98
2022-12-31T07:19:28.838Z,6.11
2022-12-31T07:21:58.846Z,6.14
2022-12-31T07:24:26.364Z,6.07
2022-12-31T07:26:57.013Z,6.17
2022-12-31T07:29:36.206Z,6.18
2022-12-31T07:32:06.065Z,6.20
2022-12-31T07:35:11.509Z,6.17
2022-12-31T07:37:55.443Z,6.30
2022-12-31T07:40:40.646Z,6.30
2022-12-31T07:43:22.801Z,6.46
2022-12-31T07:46:01.732Z,6.55
2022-12-31T07:48:29.837Z,6.59
2022-12-31T07:50:57.756Z,6.70
2022-12-31T07:53:25.653Z,6.84
2022-12-31T07:55:59.716Z,6.86
2022-12-31T07:58:37.988Z,6.92
2022-12-31T08:01:06.650Z,7.00
2022-12-31T08:03:41.595Z,7.05
2022-12-31T08:06:32.772Z,7.17
2022-12-31T08:09:06.743Z,7.32
2022-12-31T08:11:52.982Z,7.37
2022-12-31T08:14:20.273Z,7.44
2022-12-31T08:16:47.815Z,7.57
2022-12-31T08:19:27.162Z,7.61
2022-12-31T08:22:06.182Z,7.72
2022-12-31T08:25:07.570Z,7.78
2022-12-31T08:27:47.542Z,7.84
2022-12-31T08:30:20.860Z,7.93
2022-12-31T08:33:15.370Z,8.04
2022-12-31T08:36:10.201Z,8.12
2022-12-31T08:39:07.048Z,8.25
2022-12-31T08:41:44.219Z,8.39
2022-12-31T08:44:29.324Z,8.48
2022-12-31T08:47:02.795Z,8.45
2022-12-31T08:49:32.180Z,8.62
2022-12-31T08:52:00.291Z,8.76
2022-12-31T08:54:27.771Z,8.78
2022-12-31T08:57:07.579Z,8.88
2022-12-31T08:59:51.000Z,8.91
2022-12-31T09:02:51.875Z,9.00
2022-12-31T09:05:24.878Z,9.04
2022-12-31T09:08:36.860Z,9.03
2022-12-31T09:11:22.578Z,9.33
2022-12-31T09:14:21.479Z,9.46
2022-12-31T09:16:53.873Z,9.42
2022-12-31T09:19:21.033Z,9.56
2022-12-31T09:21:48.431Z,9.68
2022-12-31T09:24:16.299Z,9.86
2022-12-31T09:27:25.451Z,10.09
2022-12-31T09:30:01.725Z,10.02
2022-12-31T09:32:34.846Z,9.92
2022-12-31T09:35:11.171Z,9.96
2022-12-31T09:37:48.711Z,10.01
2022-12-31T09:40:49.153Z,10.09
2022-12-31T09:43:38.029Z,10.27
2022-12-31T09:46:41.820Z,10.28
2022-12-31T09:49:45.953Z,10.15
2022-12-31T09:52:31.699Z,10.31
2022-12-31T09:55:07.642Z,10.42
2022-12-31T09:57:42.625Z,10.54
2022-12-31T10:00:48.950Z,10.68
2022-12-31T10:03:40.667Z,10.73
2022-12-31T10:06:28.623Z,10.71
2022-12-31T10:09:06.712Z,10.91
2022-12-31T10:12:03.856Z,10.91
2022-12-31T10:14:38.117Z,11.10
2022-12-31T10:17:20.079Z,11.16
2022-12-31T10:19:50.179Z,11.30
2022-12-31T10:22:30.808Z,11.44
2022-12-31T10:25:03.957Z,11.51
2022-12-31T10:27:37.142Z,11.49
2022-12-31T10:30:15.279Z,11.46
2022-12-31T10:33:18.202Z,11.71
2022-12-31T10:35:56.209Z,11.69
2022-12-31T10:38:38.164Z,11.67
2022-12-31T10:41:11.276Z,11.81
2022-12-31T10:43:53.703Z,11.94
2022-12-31T10:46:23.029Z,11.95
2022-12-31T10:49:13.523Z,11.96
2022-12-31T10:51:53.897Z,12.00
2022-12-31T10:54:57.946Z,12.02
2022-12-31T10:57:49.643Z,12.29
2022-12-31T11:00:19.695Z,12.34
2022-12-31T11:03:38.583Z,12.27
2022-12-31T11:06:53.698Z,12.47
2022-12-31T11:09:45.192Z,12.49
2022-12-31T11:12:43.259Z,12.62
2022-12-31T11:15:22.207Z,12.73
2022-12-31T11:18:07.462Z,12.70
2022-12-31T11:20:46.536Z,12.81
2022-12-31T11:23:52.810Z,12.75
2022-12-31T11:26:35.012Z,12.64
2022-12-31T11:29:17.526Z,12.64
2022-12-31T11:32:14.121Z,12.77
2022-12-31T11:35:18.073Z,12.77
2022-12-31T11:38:18.106Z,12.65
2022-12-31T11:41:03.866Z,12.73
2022-12-31T11:43:49.714Z,12.92
2022-12-31T11:47:05.699Z,12.88
2022-12-31T11:50:15.845Z,13.13
2022-12-31T11:52:52.053Z,13.06
2022-12-31T11:55:35.058Z,12.99
2022-12-31T11:58:16.144Z,13.03
2022-12-31T12:00:57.233Z,13.15
2022-12-31T12:03:24.687Z,13.17
2022-12-31T12:05:51.895Z,13.19
2022-12-31T12:08:19.816Z,13.41
2022-12-31T12:10:50.855Z,13.45
2022-12-31T12:13:17.905Z,13.49
2022-12-31T12:15:48.852Z,13.42
2022-12-31T12:18:25.082Z,13.45
2022-12-31T12:20:52.899Z,13.34
2022-12-31T12:23:27.058Z,13.38
2022-12-31T12:25:54.211Z,13.30
2022-12-31T12:28:24.556Z,13.44
2022-12-31T12:30:56.931Z,13.25
2022-12-31T12:33:24.992Z,13.25
2022-12-31T12:35:52.298Z,13.25
2022-12-31T12:38:23.133Z,13.41
2022-12-31T12:40:59.788Z,13.48
2022-12-31T12:43:37.279Z,13.36
2022-12-31T12:46:07.743Z,13.62
2022-12-31T12:48:41.315Z,13.62
2022-12-31T12:51:37.216Z,13.61
2022-12-31T12:54:41.404Z,13.60
2022-12-31T12:57:41.736Z,13.51
2022-12-31T13:00:17.733Z,13.47
2022-12-31T13:03:21.970Z,13.54
2022-12-31T13:06:10.281Z,13.60
2022-12-31T13:08:54.362Z,13.29
2022-12-31T13:11:40.401Z,13.25
2022-12-31T13:14:23.385Z,13.22
2022-12-31T13:16:59.699Z,13.29
2022-12-31T13:19:35.666Z,13.16
2022-12-31T13:22:16.301Z,13.19
2022-12-31T13:24:49.096Z,13.18
2022-12-31T13:27:38.145Z,13.13
2022-12-31T13:30:15.239Z,12.83
2022-12-31T13:32:50.184Z,12.85
2022-12-31T13:35:28.137Z,12.80
2022-12-31T13:38:05.759Z,13.03
2022-12-31T13:40:46.228Z,12.91
2022-12-31T13:43:20.646Z,12.94
2022-12-31T13:46:00.655Z,12.76
2022-12-31T13:48:35.567Z,12.67
2022-12-31T13:51:14.179Z,12.80
2022-12-31T13:54:21.996Z,12.78
2022-12-31T13:56:52.059Z,12.74
2022-12-31T13:59:39.545Z,12.70
2022-12-31T14:02:34.379Z,12.60
2022-12-31T14:05:23.262Z,12.53
2022-12-31T14:08:01.844Z,12.47
2022-12-31T14:10:48.625Z,12.60
2022-12-31T14:13:52.669Z,12.63
2022-12-31T14:16:35.422Z,12.49
2022-12-31T14:19:40.875Z,12.43
2022-12-31T14:22:30.020Z,12.33
2022-12-31T14:24:59.881Z,12.30
2022-12-31T14:27:32.933Z,12.21
2022-12-31T14:30:06.304Z,12.14
2022-12-31T14:33:05.781Z,12.21
2022-12-31T14:35:50.855Z,12.13
2022-12-31T14:38:30.383Z,11.93
2022-12-31T14:41:15.709Z,12.01
2022-12-31T14:44:16.690Z,11.91
2022-12-31T14:47:17.631Z,11.92
2022-12-31T14:50:01.165Z,11.92
2022-12-31T14:52:47.433Z,11.81
2022-12-31T14:55:17.141Z,11.74
2022-12-31T14:58:25.793Z,11.79
2022-12-31T15:00:32.469Z,11.74
2022-12-31T15:03:04.515Z,11.77
2022-12-31T15:05:37.435Z,11.68
2022-12-31T15:08:33.242Z,11.67
2022-12-31T15:11:17.499Z,11.56
2022-12-31T15:13:51.383Z,11.47
2022-12-31T15:16:27.428Z,11.42
2022-12-31T15:19:09.938Z,11.34
2022-12-31T15:21:51.448Z,11.24
2022-12-31T15:24:24.372Z,11.18
2022-12-31T15:26:58.042Z,11.07
2022-12-31T15:29:30.272Z,10.98
2022-12-31T15:31:59.970Z,10.83
2022-12-31T15:34:30.874Z,10.72
2022-12-31T15:37:00.715Z,10.63
2022-12-31T15:39:30.640Z,10.56
2022-12-31T15:45:00.555Z,10.47
2022-12-31T15:47:36.453Z,10.47
2022-12-31T15:50:08.051Z,10.43
2022-12-31T15:52:44.342Z,10.45
2022-12-31T15:55:31.850Z,10.38
2022-12-31T15:58:05.140Z,10.27
2022-12-31T16:01:14.005Z,10.29
2022-12-31T16:03:48.023Z,10.25
2022-12-31T16:06:16.639Z,10.22
2022-12-31T16:08:46.601Z,10.19
2022-12-31T16:11:14.643Z,10.12
2022-12-31T16:13:48.717Z,10.07
2022-12-31T16:16:31.476Z,10.10
2022-12-31T16:19:00.312Z,10.11
2022-12-31T16:21:34.920Z,10.11
2022-12-31T16:24:03.975Z,10.08
2022-12-31T16:26:43.740Z,10.08
2022-12-31T16:29:16.222Z,10.08
2022-12-31T16:31:45.323Z,10.09
2022-12-31T16:34:18.520Z,10.14
2022-12-31T16:36:56.703Z,10.15
2022-12-31T16:39:26.577Z,10.17
2022-12-31T16:42:17.793Z,10.16
2022-12-31T16:44:45.346Z,10.13
2022-12-31T16:47:38.209Z,10.03
2022-12-31T16:50:13.457Z,9.96
2022-12-31T16:52:45.888Z,9.95
2022-12-31T16:55:23.232Z,9.97
2022-12-31T16:57:55.653Z,9.97
2022-12-31T17:00:25.296Z,10.03
2022-12-31T17:03:23.530Z,10.11
2022-12-31T17:06:14.064Z,10.11
2022-12-31T17:08:56.102Z,10.09
2022-12-31T17:11:34.172Z,10.12
2022-12-31T17:14:14.237Z,10.14
2022-12-31T17:17:01.362Z,10.15
2022-12-31T17:19:37.245Z,10.11
2022-12-31T17:22:10.093Z,10.07
2022-12-31T17:24:38.438Z,9.94
2022-12-31T17:27:08.032Z,9.84
2022-12-31T17:29:35.619Z,9.75
2022-12-31T17:32:25.432Z,9.64
2022-12-31T17:34:52.545Z,9.55
2022-12-31T17:37:28.021Z,9.51
2022-12-31T17:40:32.239Z,9.54
2022-12-31T17:42:49.169Z,9.42
2022-12-31T17:45:20.956Z,9.33
2022-12-31T17:47:51.154Z,9.24
2022-12-31T17:50:28.177Z,9.23
2022-12-31T17:53:10.777Z,9.22
2022-12-31T17:55:38.414Z,9.20
2022-12-31T17:58:06.617Z,9.19
2022-12-31T18:00:36.844Z,9.11
2022-12-31T18:03:04.110Z,8.99
2022-12-31T18:05:31.242Z,8.94
2022-12-31T18:07:58.323Z,8.92
2022-12-31T18:10:27.689Z,8.85
2022-12-31T18:12:54.863Z,8.80
2022-12-31T18:15:24.379Z,8.78
2022-12-31T18:17:51.592Z,8.74
2022-12-31T18:20:18.938Z,8.66
2022-12-31T18:22:46.049Z,8.58
2022-12-31T18:25:21.977Z,8.51
2022-12-31T18:27:50.834Z,8.44
2022-12-31T18:30:18.411Z,8.38
2022-12-31T18:32:46.241Z,8.35
2022-12-31T18:38:12.369Z,8.26
2022-12-31T18:40:44.028Z,8.23
2022-12-31T18:43:19.157Z,8.21
2022-12-31T18:45:47.680Z,8.22
2022-12-31T18:48:15.413Z,8.18
2022-12-31T18:50:43.018Z,8.10
2022-12-31T18:53:19.703Z,8.03
2022-12-31T18:55:53.248Z,7.97
2022-12-31T18:58:21.172Z,7.91
2022-12-31T19:00:49.516Z,7.85
2022-12-31T19:03:21.897Z,7.85
2022-12-31T19:05:50.741Z,7.87
2022-12-31T19:08:19.299Z,7.89
2022-12-31T19:10:48.313Z,7.85
2022-12-31T19:13:17.889Z,7.83
2022-12-31T19:15:50.067Z,7.82
2022-12-31T19:18:17.286Z,7.80
2022-12-31T19:20:44.667Z,7.74
2022-12-31T19:23:20.310Z,7.58
2022-12-31T19:25:49.109Z,7.51
2022-12-31T19:28:19.836Z,7.44
2022-12-31T19:30:47.221Z,7.44
2022-12-31T19:33:15.845Z,7.34
2022-12-31T19:35:44.055Z,7.27
2022-12-31T19:38:25.722Z,7.18
2022-12-31T19:40:53.651Z,7.18
2022-12-31T19:43:22.933Z,7.06
2022-12-31T19:45:51.288Z,7.04
2022-12-31T19:48:25.855Z,7.06
2022-12-31T19:50:57.491Z,7.05
2022-12-31T19:53:26.811Z,6.99
2022-12-31T19:55:54.221Z,6.94
2022-12-31T19:58:25.556Z,6.93
2022-12-31T20:01:02.379Z,6.94
2022-12-31T20:03:32.775Z,7.01
2022-12-31T20:06:08.424Z,6.98
2022-12-31T20:08:37.564Z,6.96
2022-12-31T20:11:19.164Z,6.98
2022-12-31T20:13:47.560Z,7.00
2022-12-31T20:16:17.313Z,7.04
2022-12-31T20:18:46.056Z,7.11
2022-12-31T20:21:17.629Z,7.16
2022-12-31T20:23:45.126Z,7.18
2022-12-31T20:26:12.627Z,7.20
2022-12-31T20:28:39.946Z,7.21
2022-12-31T20:31:16.227Z,7.25
2022-12-31T20:33:43.917Z,7.23
2022-12-31T20:36:13.946Z,7.21
2022-12-31T20:38:41.442Z,7.13
2022-12-31T20:41:12.613Z,7.17
2022-12-31T20:43:40.491Z,7.21
2022-12-31T20:46:14.816Z,7.14
2022-12-31T20:48:43.114Z,7.11
2022-12-31T20:51:10.507Z,7.08
2022-12-31T20:53:37.614Z,7.04
2022-12-31T20:56:05.910Z,6.96
2022-12-31T20:58:33.124Z,6.91
2022-12-31T21:01:00.510Z,6.87
2022-12-31T21:04:03.741Z,6.81
2022-12-31T21:06:15.365Z,6.81
2022-12-31T21:08:42.781Z,6.75
2022-12-31T21:11:28.728Z,6.65
2022-12-31T21:13:57.429Z,6.63
2022-12-31T21:16:25.392Z,6.61
2022-12-31T21:18:52.725Z,6.60
2022-12-31T21:21:20.226Z,6.56
2022-12-31T21:23:47.292Z,6.56
2022-12-31T21:26:15.099Z,6.52
2022-12-31T21:28:42.902Z,6.58
2022-12-31T21:31:12.264Z,6.52
2022-12-31T21:33:39.552Z,6.55
2022-12-31T21:36:06.846Z,6.57
2022-12-31T21:38:36.327Z,6.51
2022-12-31T21:41:04.723Z,6.37
2022-12-31T21:43:31.929Z,6.46
2022-12-31T21:46:01.505Z,6.42
2022-12-31T21:48:28.665Z,6.38
2022-12-31T21:51:08.880Z,6.45
2022-12-31T21:53:37.499Z,6.46
2022-12-31T21:56:08.529Z,6.43
2022-12-31T21:58:40.599Z,6.42
2022-12-31T22:01:28.523Z,6.32
2022-12-31T22:03:55.700Z,6.26
2022-12-31T22:06:24.723Z,6.21
2022-12-31T22:08:54.220Z,6.15
2022-12-31T22:11:23.998Z,6.15
2022-12-31T22:13:51.231Z,6.12
2022-12-31T22:16:20.168Z,6.10
2022-12-31T22:18:47.848Z,6.07
2022-12-31T22:21:21.898Z,6.12
2022-12-31T22:23:51.983Z,6.25
2022-12-31T22:26:21.940Z,6.21
2022-12-31T22:28:49.117Z,6.07
2022-12-31T22:31:24.331Z,5.94
2022-12-31T22:33:52.238Z,5.92
2022-12-31T22:36:22.203Z,5.88
2022-12-31T22:38:51.424Z,5.85
2022-12-31T22:41:20.664Z,5.84
2022-12-31T22:43:50.370Z,5.80
2022-12-31T22:46:26.238Z,5.78
2022-12-31T22:48:56.911Z,5.75
2022-12-31T22:51:24.024Z,5.87
2022-12-31T22:53:51.197Z,5.94
2022-12-31T22:56:19.116Z,5.93
2022-12-31T22:58:46.975Z,5.91
2022-12-31T23:01:19.074Z,5.93
2022-12-31T23:03:47.548Z,6.01
2022-12-31T23:06:15.461Z,6.02
2022-12-31T23:09:02.628Z,6.03
2022-12-31T23:11:30.098Z,6.04
2022-12-31T23:14:15.587Z,6.00
2022-12-31T23:17:30.297Z,6.02
2022-12-31T23:20:07.004Z,5.85
2022-12-31T23:22:52.807Z,5.85
2022-12-31T23:25:20.257Z,5.95
2022-12-31T23:27:47.374Z,5.77
2022-12-31T23:30:14.570Z,5.86
2022-12-31T23:32:41.687Z,5.91
2022-12-31T23:35:10.018Z,5.83
2022-12-31T23:37:37.456Z,5.79
2022-12-31T23:40:05.151Z,5.80
2022-12-31T23:42:32.245Z,5.85
2022-12-31T23:44:59.368Z,5.85
2022-12-31T23:47:26.417Z,5.82
2022-12-31T23:49:53.708Z,5.79
2022-12-31T23:52:20.824Z,5.76
2022-12-31T23:54:47.993Z,5.75
2022-12-31T23:57:15.132Z,5.75
2022-12-31T23:59:42.246Z,5.74
